• Join FlightAware (Why Join?)
  • Login
  • US Flag 
07:53PM EDT


 

Airport Tracker/Info


-or-


 

Live Flight TrackerFlight Track Log ✈ N400PU ✈ 13-Sep-2013 ✈ CYYZ - KTOL

Flight Track Log - Related Links

Times and Time Zones

All times are in EDT time to prevent confusion due to time zone crossing. See the N400PU flight status page for this flight to view local times or setup timezone preferences in your user account.

Time Position Orientation Groundspeed Altitude Reporting Facility
EDT Latitude Longitude Course Direction KTS MPH feet Rate Location/Type
08:14AM 43.6833 -79.6333 180° South 10 12 500  Level Toronto Center
08:16AM 43.6667 -79.6333 180° South 10 12 500  Level Toronto Center
08:17AM 43.6667 -79.6333 180° South 20 23 500  Level Toronto Center
08:20AM 43.6833 -79.6333 360° North 50 58 600 600 Climbing Toronto Center
08:21AM 43.7167 -79.5833 47° Northeast 160 184 3,100 2,100 Climbing Toronto Center
08:22AM 43.7500 -79.5167 55° Northeast 200 230 4,900 1,920 Climbing Toronto Center
08:23AM 43.7000 -79.4667 144° Southeast 250 288 7,000 2,640 Climbing Toronto Center
08:24AM 43.6167 -79.5167 203° Southwest 270 311 10,200 2,700 Climbing Toronto Center
08:25AM 43.5500 -79.5333 190° South 290 334 12,500 2,280 Climbing Toronto Center
08:26AM 43.4667 -79.5833 204° Southwest 310 357 14,800 2,400 Climbing Toronto Center
08:27AM 43.3833 -79.6333 204° Southwest 310 357 17,300 2,160 Climbing Toronto Center
08:28AM 43.3000 -79.6500 188° South 330 380 19,200 1,980 Climbing Toronto Center
08:29AM 43.2000 -79.7000 200° South 340 391 21,300 1,380 Climbing Toronto Center
08:30AM 43.1000 -79.7500 200° South 360 414 22,000 300 Climbing Toronto Center
08:31AM 43.0000 -79.8167 206° Southwest 410 472 22,000  Level Toronto Center
08:32AM 42.8731 -79.8978 205° Southwest 429 494 22,000  Level Cleveland Center
08:33AM 42.7881 -80.0061 223° Southwest 424 488 22,000  Level Cleveland Center
08:34AM 42.7428 -80.1450 246° West 404 465 22,000  Level Cleveland Center
08:35AM 42.6994 -80.2950 249° West 426 490 22,000  Level Cleveland Center
08:36AM 42.6561 -80.4364 247° West 420 483 22,000  Level Cleveland Center
08:37AM 42.6122 -80.5775 247° West 415 478 22,000  Level Cleveland Center
08:38AM 42.5706 -80.7242 249° West 415 478 22,000  Level Cleveland Center
08:39AM 42.5308 -80.8481 247° West 407 468 22,000  Level Cleveland Center
08:40AM 42.4867 -80.9886 247° West 407 468 22,000  Level Cleveland Center
08:41AM 42.4464 -81.1319 249° West 412 474 22,000  Level Cleveland Center
08:42AM 42.4019 -81.2719 247° West 412 474 22,000  Level Cleveland Center
08:43AM 42.3592 -81.4092 247° West 407 468 22,000 -60 Level Cleveland Center
08:44AM 42.3144 -81.5433 246° West 407 468 21,900 -600 Descending Cleveland Center
08:45AM 42.2364 -81.6517 226° Southwest 396 456 20,900 -1,080 Descending Cleveland Center
08:46AM 42.1561 -81.7539 223° Southwest 396 456 19,800 -1,140 Descending Cleveland Center
08:47AM 42.0694 -81.8642 223° Southwest 396 456 18,700 -1,140 Descending Cleveland Center
08:48AM 41.9872 -81.9603 221° Southwest 391 450 17,600 -1,320 Descending Cleveland Center
08:49AM 41.8903 -82.0308 208° Southwest 391 450 16,100 -1,500 Descending Cleveland Center
08:50AM 41.7936 -82.1011 208° Southwest 399 459 14,600 -1,140 Descending Cleveland Center
08:51AM 41.7072 -82.1575 206° Southwest 399 459 13,900 -360 Descending Cleveland Center
08:52AM 41.6183 -82.2525 219° Southwest 371 427 13,900 -360 Level Cleveland Center
08:53AM 41.5644 -82.3675 238° Southwest 371 427 13,200 -540 Descending Cleveland Center
08:54AM 41.5128 -82.4825 239° Southwest 371 427 12,900 -900 Descending Cleveland Center
08:55AM 41.5064 -82.6072 266° West 354 407 11,500 -1,020 Descending Cleveland Center
08:56AM 41.5144 -82.7294 275° West 346 398 10,900 -600 Descending Cleveland Center
08:57AM 41.5247 -82.8547 276° West 340 391 10,300 -480 Descending Cleveland Center
08:58AM 41.5392 -82.9661 280° West 327 376 10,000 -180 Descending Cleveland Center
08:59AM 41.5617 -83.0781 285° West 312 359 10,000  Level Cleveland Center
09:00AM 41.5786 -83.1675 284° West 300 345 10,000  Level Cleveland Center
09:01AM 41.5992 -83.2683 285° West 275 316 10,000 -780 Level Cleveland Center
09:02AM 41.6139 -83.3522 283° West 251 289 8,500 -2,100 Descending Cleveland Center
09:03AM 41.6325 -83.4419 286° West 245 282 5,900 -2,340 Descending Cleveland Center
09:04AM 41.6508 -83.5344 285° West 245 282 3,900 -1,500 Descending Cleveland Center
09:05AM 41.6486 -83.6206 268° West 245 282 3,000 -900 Descending Cleveland Center
09:07AM 41.5833 -83.8000 289° West  Level FlightAware Approximate
09:14AM 41.5868 -83.8078 289° West  Level Estimated